createdAt,value
2023-04-18T00:01:48.990Z,14.95
2023-04-18T00:04:18.535Z,15.73
2023-04-18T00:06:47.171Z,16.27
2023-04-18T00:09:14.603Z,17.13
2023-04-18T00:11:42.044Z,16.13
2023-04-18T00:14:10.327Z,17.75
2023-04-18T00:16:38.058Z,16.13
2023-04-18T00:19:06.182Z,16.77
2023-04-18T00:21:34.971Z,15.95
2023-04-18T00:24:02.406Z,18.42
2023-04-18T00:26:29.798Z,20.88
2023-04-18T00:28:57.735Z,20.23
2023-04-18T00:31:25.357Z,21.45
2023-04-18T00:33:52.853Z,22.70
2023-04-18T00:36:20.260Z,23.75
2023-04-18T00:38:48.943Z,24.08
2023-04-18T00:41:16.477Z,22.70
2023-04-18T00:43:43.878Z,23.13
2023-04-18T00:46:11.270Z,24.30
2023-04-18T00:48:39.795Z,24.08
2023-04-18T00:51:07.877Z,25.20
2023-04-18T00:53:35.285Z,23.20
2023-04-18T00:56:04.850Z,23.63
2023-04-18T00:58:32.944Z,23.63
2023-04-18T01:01:00.376Z,25.20
2023-04-18T01:03:27.937Z,23.85
2023-04-18T01:05:57.326Z,24.70
2023-04-18T01:08:25.535Z,23.98
2023-04-18T01:10:52.938Z,25.45
2023-04-18T01:13:21.777Z,23.98
2023-04-18T01:15:51.565Z,24.73
2023-04-18T01:18:20.761Z,23.50
2023-04-18T01:20:49.731Z,24.40
2023-04-18T01:23:18.687Z,23.90
2023-04-18T01:25:49.172Z,23.17
2023-04-18T01:28:16.890Z,25.52
2023-04-18T01:30:44.326Z,24.83
2023-04-18T01:33:11.934Z,25.10
2023-04-18T01:35:39.336Z,26.98
2023-04-18T01:38:06.725Z,26.77
2023-04-18T01:40:34.118Z,25.48
2023-04-18T01:43:02.879Z,26.80
2023-04-18T01:45:30.590Z,25.88
2023-04-18T01:47:58.147Z,26.90
2023-04-18T01:50:26.002Z,26.85
2023-04-18T01:52:53.482Z,26.77
2023-04-18T01:55:20.976Z,26.52
2023-04-18T01:57:48.377Z,26.40
2023-04-18T02:00:17.834Z,25.45
2023-04-18T02:02:45.415Z,26.50
2023-04-18T02:05:12.874Z,27.45
2023-04-18T02:07:40.929Z,27.30
2023-04-18T02:10:09.152Z,28.17
2023-04-18T02:12:36.687Z,26.05
2023-04-18T02:15:04.348Z,27.58
2023-04-18T02:17:33.482Z,27.48
2023-04-18T02:20:00.898Z,26.98
2023-04-18T02:22:28.263Z,29.23
2023-04-18T02:24:55.817Z,29.40
2023-04-18T02:27:23.206Z,29.20
2023-04-18T02:29:50.669Z,28.48
2023-04-18T02:32:18.081Z,28.25
2023-04-18T02:34:46.752Z,29.55
2023-04-18T02:37:14.118Z,27.75
2023-04-18T02:39:41.489Z,25.95
2023-04-18T02:42:08.851Z,27.83
2023-04-18T02:44:36.224Z,26.58
2023-04-18T02:47:03.573Z,27.30
2023-04-18T02:49:30.935Z,27.98
2023-04-18T02:51:59.636Z,28.45
2023-04-18T02:54:26.997Z,27.27
2023-04-18T02:56:55.270Z,27.08
2023-04-18T02:59:22.661Z,27.33
2023-04-18T03:01:50.039Z,29.35
2023-04-18T03:04:17.497Z,26.15
2023-04-18T03:06:44.958Z,27.05
2023-04-18T03:09:13.665Z,26.02
2023-04-18T03:11:41.082Z,23.90
2023-04-18T03:14:08.451Z,25.48
2023-04-18T03:16:35.890Z,24.60
2023-04-18T03:19:03.249Z,25.58
2023-04-18T03:21:30.735Z,24.73
2023-04-18T03:23:58.137Z,25.45
2023-04-18T03:26:26.987Z,24.63
2023-04-18T03:28:54.426Z,25.45
2023-04-18T03:31:21.854Z,24.58
2023-04-18T03:33:51.534Z,23.88
2023-04-18T03:36:19.016Z,23.35
2023-04-18T03:38:46.536Z,24.55
2023-04-18T03:41:13.891Z,25.10
2023-04-18T03:43:42.549Z,25.90
2023-04-18T03:46:10.037Z,26.65
2023-04-18T03:48:37.482Z,25.38
2023-04-18T03:51:06.653Z,25.15
2023-04-18T03:53:33.996Z,25.02
2023-04-18T03:56:01.384Z,24.55
2023-04-18T03:58:28.740Z,24.40
2023-04-18T04:00:57.444Z,26.00
2023-04-18T04:03:25.079Z,27.20
2023-04-18T04:05:53.568Z,26.08
2023-04-18T04:08:21.215Z,27.02
2023-04-18T04:10:48.592Z,27.98
2023-04-18T04:13:15.990Z,27.25
2023-04-18T04:15:43.402Z,27.45
2023-04-18T04:18:12.083Z,27.42
2023-04-18T04:20:39.507Z,24.73
2023-04-18T04:23:07.236Z,27.92
2023-04-18T04:25:34.674Z,28.85
2023-04-18T04:28:02.961Z,29.85
2023-04-18T04:30:30.500Z,28.83
2023-04-18T04:32:58.151Z,28.67
2023-04-18T04:35:26.902Z,28.35
2023-04-18T04:37:54.621Z,30.80
2023-04-18T04:40:22.933Z,28.60
2023-04-18T04:42:53.891Z,28.00
2023-04-18T04:45:21.509Z,27.40
2023-04-18T04:47:48.910Z,27.05
2023-04-18T04:50:16.570Z,27.35
2023-04-18T04:52:45.276Z,29.30
2023-04-18T04:55:12.685Z,26.15
2023-04-18T04:57:40.079Z,26.27
2023-04-18T05:00:08.955Z,28.42
2023-04-18T05:02:36.487Z,28.23
2023-04-18T05:05:04.163Z,27.88
2023-04-18T05:07:31.777Z,27.38
2023-04-18T05:10:00.491Z,27.77
2023-04-18T05:12:27.887Z,28.35
2023-04-18T05:14:55.248Z,27.98
2023-04-18T05:17:22.778Z,26.40
2023-04-18T05:19:51.048Z,29.52
2023-04-18T05:22:18.440Z,26.60
2023-04-18T05:24:46.822Z,27.70
2023-04-18T05:27:18.038Z,28.27
2023-04-18T05:29:47.304Z,27.35
2023-04-18T05:32:14.669Z,26.42
2023-04-18T05:34:42.261Z,28.67
2023-04-18T05:37:09.645Z,26.45
2023-04-18T05:39:37.135Z,25.92
2023-04-18T05:42:04.870Z,25.80
2023-04-18T05:44:33.584Z,26.23
2023-04-18T05:47:01.041Z,25.65
2023-04-18T05:49:28.413Z,26.20
2023-04-18T05:51:56.472Z,24.48
2023-04-18T05:54:25.038Z,27.50
2023-04-18T05:56:52.534Z,24.05
2023-04-18T05:59:20.574Z,23.40
2023-04-18T06:01:49.376Z,23.02
2023-04-18T06:04:17.498Z,23.63
2023-04-18T06:06:45.251Z,23.05
2023-04-18T06:09:12.642Z,23.42
2023-04-18T06:11:40.022Z,22.73
2023-04-18T06:14:07.764Z,23.27
2023-04-18T06:16:37.046Z,23.83
2023-04-18T06:19:05.859Z,22.60
2023-04-18T06:21:33.251Z,22.23
2023-04-18T06:24:01.275Z,21.40
2023-04-18T06:26:30.080Z,20.52
2023-04-18T06:28:57.428Z,22.40
2023-04-18T06:31:24.852Z,21.05
2023-04-18T06:33:52.335Z,21.23
2023-04-18T06:36:21.181Z,21.65
2023-04-18T06:38:48.530Z,21.75
2023-04-18T06:41:16.151Z,22.38
2023-04-18T06:43:55.787Z,22.80
2023-04-18T06:46:29.545Z,24.15
2023-04-18T06:48:57.048Z,24.25
2023-04-18T06:51:25.954Z,25.10
2023-04-18T06:53:53.786Z,23.50
2023-04-18T06:56:21.495Z,24.25
2023-04-18T06:58:49.085Z,24.23
2023-04-18T07:01:16.593Z,25.00
2023-04-18T07:03:44.164Z,24.73
2023-04-18T07:06:11.659Z,22.67
2023-04-18T07:08:40.366Z,23.75
2023-04-18T07:11:07.771Z,22.60
2023-04-18T07:13:35.135Z,22.58
2023-04-18T07:16:02.987Z,23.17
2023-04-18T07:18:37.933Z,23.05
2023-04-18T07:21:07.396Z,22.42
2023-04-18T07:23:35.340Z,22.77
2023-04-18T07:26:05.492Z,24.02
2023-04-18T07:28:33.562Z,21.92
2023-04-18T07:31:01.099Z,22.52
2023-04-18T07:33:31.576Z,21.15
2023-04-18T07:35:59.176Z,23.75
2023-04-18T07:38:27.767Z,21.52
2023-04-18T07:40:57.594Z,23.10
2023-04-18T07:43:26.853Z,22.77
2023-04-18T07:45:54.930Z,22.63
2023-04-18T07:48:22.878Z,20.92
2023-04-18T07:50:50.522Z,21.08
2023-04-18T07:53:18.149Z,21.33
2023-04-18T07:55:45.659Z,23.02
2023-04-18T07:58:13.059Z,22.08
2023-04-18T08:00:43.695Z,22.33
2023-04-18T08:03:12.330Z,22.90
2023-04-18T08:05:40.928Z,22.17
2023-04-18T08:08:09.631Z,21.40
2023-04-18T08:10:37.668Z,22.10
2023-04-18T08:13:05.055Z,21.75
2023-04-18T08:15:32.959Z,23.40
2023-04-18T08:18:02.146Z,22.70
2023-04-18T08:20:29.558Z,21.10
2023-04-18T08:23:07.540Z,20.65
2023-04-18T08:25:36.601Z,21.42
2023-04-18T08:28:04.714Z,21.88
2023-04-18T08:30:32.635Z,20.60
2023-04-18T08:33:01.825Z,20.17
2023-04-18T08:35:29.621Z,20.45
2023-04-18T08:37:57.125Z,19.90
2023-04-18T08:40:24.961Z,19.73
2023-04-18T08:42:54.117Z,20.52
2023-04-18T08:45:21.681Z,19.92
2023-04-18T08:47:49.140Z,19.88
2023-04-18T08:50:18.406Z,20.48
2023-04-18T08:52:47.673Z,20.52
2023-04-18T08:55:15.729Z,20.88
2023-04-18T08:57:43.306Z,21.15
2023-04-18T09:00:11.826Z,17.83
2023-04-18T09:02:43.210Z,20.45
2023-04-18T09:05:15.053Z,20.83
2023-04-18T09:07:43.976Z,18.23
2023-04-18T09:10:12.514Z,20.05
2023-04-18T09:12:44.611Z,20.88
2023-04-18T09:15:14.367Z,20.88
2023-04-18T09:17:43.542Z,18.77
2023-04-18T09:20:12.244Z,22.15
2023-04-18T09:22:48.667Z,20.13
2023-04-18T09:25:27.362Z,20.73
2023-04-18T09:27:54.894Z,21.05
2023-04-18T09:30:39.972Z,21.38
2023-04-18T09:33:10.178Z,22.08
2023-04-18T09:35:38.493Z,21.50
2023-04-18T09:38:08.635Z,21.50
2023-04-18T09:40:36.514Z,20.90
2023-04-18T09:43:19.049Z,23.38
2023-04-18T09:45:47.897Z,21.58
2023-04-18T09:48:15.339Z,22.98
2023-04-18T09:50:43.506Z,22.75
2023-04-18T09:53:13.302Z,23.73
2023-04-18T09:55:42.277Z,21.48
2023-04-18T09:58:11.419Z,22.45
2023-04-18T10:00:40.745Z,22.70
2023-04-18T10:03:09.820Z,23.17
2023-04-18T10:05:40.485Z,22.70
2023-04-18T10:08:08.490Z,22.75
2023-04-18T10:10:38.947Z,21.17
2023-04-18T10:13:08.375Z,22.05
2023-04-18T10:15:36.178Z,23.02
2023-04-18T10:18:07.933Z,23.63
2023-04-18T10:20:36.089Z,22.85
2023-04-18T10:23:37.718Z,22.98
2023-04-18T10:26:07.489Z,23.83
2023-04-18T10:28:52.823Z,23.98
2023-04-18T10:31:22.172Z,22.70
2023-04-18T10:34:03.347Z,22.38
2023-04-18T10:36:32.510Z,23.27
2023-04-18T10:39:02.924Z,21.65
2023-04-18T10:41:32.309Z,22.38
2023-04-18T10:44:20.058Z,22.23
2023-04-18T10:47:23.954Z,21.95
2023-04-18T10:50:06.636Z,20.10
2023-04-18T10:52:34.634Z,21.60
2023-04-18T10:55:18.499Z,20.65
2023-04-18T10:57:48.860Z,20.23
2023-04-18T11:00:18.630Z,22.15
2023-04-18T11:02:51.017Z,21.95
2023-04-18T11:05:24.161Z,22.10
2023-04-18T11:07:51.782Z,21.45
2023-04-18T11:10:20.710Z,22.25
2023-04-18T11:12:49.535Z,22.58
2023-04-18T11:15:21.260Z,23.45
2023-04-18T11:18:00.397Z,24.23
2023-04-18T11:20:28.476Z,23.05
2023-04-18T11:22:57.858Z,23.60
2023-04-18T11:25:27.385Z,22.35
2023-04-18T11:27:59.342Z,23.88
2023-04-18T11:30:26.897Z,24.20
2023-04-18T11:32:55.913Z,23.35
2023-04-18T11:35:23.678Z,23.48
2023-04-18T11:37:51.231Z,23.42
2023-04-18T11:40:18.742Z,23.52
2023-04-18T11:42:46.224Z,23.42
2023-04-18T11:45:16.568Z,24.02
2023-04-18T11:47:44.593Z,24.15
2023-04-18T11:50:13.570Z,22.95
2023-04-18T11:52:42.451Z,24.10
2023-04-18T11:55:17.845Z,23.92
2023-04-18T11:57:53.442Z,22.77
2023-04-18T12:00:32.702Z,23.45
2023-04-18T12:03:01.806Z,22.17
2023-04-18T12:05:31.473Z,23.25
2023-04-18T12:08:06.986Z,24.98
2023-04-18T12:10:35.834Z,22.85
2023-04-18T12:13:07.968Z,23.98
2023-04-18T12:15:39.639Z,23.88
2023-04-18T12:18:09.088Z,23.67
2023-04-18T12:20:38.749Z,23.65
2023-04-18T12:23:07.759Z,24.73
2023-04-18T12:25:36.299Z,25.15
2023-04-18T12:28:05.061Z,24.45
2023-04-18T12:30:36.813Z,22.75
2023-04-18T12:33:06.624Z,23.25
2023-04-18T12:35:34.154Z,23.90
2023-04-18T12:38:03.482Z,23.45
2023-04-18T12:40:31.370Z,22.98
2023-04-18T12:42:58.747Z,22.25
2023-04-18T12:45:26.193Z,23.15
2023-04-18T12:47:54.042Z,24.52
2023-04-18T12:50:24.700Z,22.73
2023-04-18T12:52:53.386Z,22.05
2023-04-18T12:55:21.699Z,21.65
2023-04-18T12:57:51.418Z,22.70
2023-04-18T13:00:18.873Z,21.60
2023-04-18T13:02:46.492Z,20.55
2023-04-18T13:05:15.719Z,22.15
2023-04-18T13:07:44.866Z,21.80
2023-04-18T13:10:14.203Z,22.50
2023-04-18T13:12:42.410Z,21.17
2023-04-18T13:15:14.931Z,20.63
2023-04-18T13:17:42.703Z,20.20
2023-04-18T13:20:12.357Z,19.17
2023-04-18T13:22:40.576Z,20.20
2023-04-18T13:25:11.238Z,21.20
2023-04-18T13:27:41.460Z,19.88
2023-04-18T13:30:12.304Z,19.60
2023-04-18T13:32:40.471Z,20.13
2023-04-18T13:35:09.411Z,20.13
2023-04-18T13:37:37.012Z,18.63
2023-04-18T13:40:06.498Z,19.00
2023-04-18T13:42:38.126Z,18.65
2023-04-18T13:45:06.429Z,18.88
2023-04-18T13:47:33.921Z,18.90
2023-04-18T13:50:01.300Z,18.92
2023-04-18T13:52:28.806Z,17.45
2023-04-18T13:54:56.204Z,18.00
2023-04-18T13:57:23.619Z,18.67
2023-04-18T13:59:52.321Z,17.05
2023-04-18T14:02:19.775Z,18.50
2023-04-18T14:04:47.412Z,17.85
2023-04-18T14:07:15.184Z,17.05
2023-04-18T14:09:42.629Z,16.13
2023-04-18T14:12:10.536Z,16.58
2023-04-18T14:14:38.021Z,17.38
2023-04-18T14:17:06.971Z,17.10
2023-04-18T14:19:34.918Z,17.95
2023-04-18T14:22:02.430Z,17.00
2023-04-18T14:24:29.815Z,18.27
2023-04-18T14:26:57.282Z,18.65
2023-04-18T14:29:24.661Z,17.13
2023-04-18T14:31:52.045Z,18.35
2023-04-18T14:34:20.810Z,17.33
2023-04-18T14:36:48.257Z,17.48
2023-04-18T14:39:15.887Z,17.00
2023-04-18T14:41:43.402Z,16.73
2023-04-18T14:44:10.978Z,16.50
2023-04-18T14:46:38.463Z,15.20
2023-04-18T14:49:05.950Z,16.55
2023-04-18T14:51:35.092Z,14.90
2023-04-18T14:54:02.708Z,15.85
2023-04-18T14:56:30.446Z,15.10
2023-04-18T14:58:58.685Z,16.08
2023-04-18T15:01:26.319Z,15.70
2023-04-18T15:03:54.669Z,15.52
2023-04-18T15:06:23.107Z,15.02
2023-04-18T15:08:53.194Z,14.77
2023-04-18T15:11:20.993Z,14.35
2023-04-18T15:13:50.043Z,14.48
2023-04-18T15:16:17.739Z,14.73
2023-04-18T15:18:45.449Z,14.60
2023-04-18T15:21:12.900Z,13.30
2023-04-18T15:23:40.349Z,13.32
2023-04-18T15:26:09.119Z,14.63
2023-04-18T15:28:37.971Z,15.00
2023-04-18T15:31:07.170Z,15.45
2023-04-18T15:33:34.735Z,14.90
2023-04-18T15:36:02.262Z,15.18
2023-04-18T15:38:32.723Z,15.32
2023-04-18T15:41:00.580Z,16.25
2023-04-18T15:43:29.476Z,17.30
2023-04-18T15:45:56.904Z,16.33
2023-04-18T15:48:24.438Z,17.38
2023-04-18T15:50:52.379Z,16.70
2023-04-18T15:53:19.999Z,16.95
2023-04-18T15:55:47.561Z,17.23
2023-04-18T15:58:15.182Z,17.67
2023-04-18T16:00:44.252Z,18.52
2023-04-18T16:03:12.185Z,18.63
2023-04-18T16:05:40.026Z,17.85
2023-04-18T16:08:08.881Z,17.85
2023-04-18T16:10:36.486Z,18.48
2023-04-18T16:13:04.122Z,18.77
2023-04-18T16:15:32.173Z,19.45
2023-04-18T16:18:01.657Z,18.77
2023-04-18T16:20:29.319Z,19.63
2023-04-18T16:22:56.861Z,18.25
2023-04-18T16:25:24.714Z,19.63
2023-04-18T16:27:52.230Z,19.40
2023-04-18T16:30:19.619Z,20.13
2023-04-18T16:32:47.055Z,19.80
2023-04-18T16:35:15.796Z,19.65
2023-04-18T16:37:43.192Z,19.98
2023-04-18T16:40:11.318Z,19.63
2023-04-18T16:42:39.800Z,19.25
2023-04-18T16:45:08.095Z,19.27
2023-04-18T16:47:36.922Z,19.98
2023-04-18T16:50:04.734Z,19.38
2023-04-18T16:52:33.515Z,19.52
2023-04-18T16:55:01.006Z,20.70
2023-04-18T16:57:28.374Z,21.58
2023-04-18T16:59:55.894Z,21.50
2023-04-18T17:02:23.642Z,20.45
2023-04-18T17:04:51.490Z,19.35
2023-04-18T17:07:19.791Z,19.10
2023-04-18T17:09:49.185Z,18.70
2023-04-18T17:12:17.220Z,18.30
2023-04-18T17:14:45.293Z,18.75
2023-04-18T17:17:13.307Z,18.90
2023-04-18T17:19:41.055Z,19.20
2023-04-18T17:22:08.491Z,19.65
2023-04-18T17:24:35.888Z,19.95
2023-04-18T17:27:04.689Z,19.35
2023-04-18T17:29:32.543Z,18.88
2023-04-18T17:32:00.013Z,19.10
2023-04-18T17:34:27.516Z,17.88
2023-04-18T17:36:54.900Z,19.17
2023-04-18T17:39:24.223Z,19.08
2023-04-18T17:41:51.574Z,19.17
2023-04-18T17:44:20.660Z,19.73
2023-04-18T17:46:48.939Z,18.25
2023-04-18T17:49:17.858Z,18.65
2023-04-18T17:51:45.540Z,18.33
2023-04-18T17:54:13.426Z,19.77
2023-04-18T17:56:41.134Z,18.27
2023-04-18T17:59:09.709Z,18.80
2023-04-18T18:01:38.686Z,18.52
2023-04-18T18:04:06.337Z,19.50
2023-04-18T18:06:34.494Z,18.17
2023-04-18T18:09:01.888Z,18.95
2023-04-18T18:11:29.272Z,19.13
2023-04-18T18:13:57.344Z,18.88
2023-04-18T18:16:24.904Z,18.60
2023-04-18T18:18:53.629Z,18.13
2023-04-18T18:21:21.000Z,18.83
2023-04-18T18:23:48.388Z,17.77
2023-04-18T18:26:17.213Z,18.77
2023-04-18T18:28:44.562Z,19.08
2023-04-18T18:31:12.038Z,19.00
2023-04-18T18:33:39.527Z,18.58
2023-04-18T18:36:08.392Z,18.15
2023-04-18T18:38:35.785Z,18.50
2023-04-18T18:41:04.569Z,18.98
2023-04-18T18:43:32.406Z,18.58
2023-04-18T18:45:59.895Z,19.42
2023-04-18T18:48:28.302Z,19.40
2023-04-18T18:50:56.504Z,19.85
2023-04-18T18:53:25.422Z,21.25
2023-04-18T18:55:52.804Z,19.95
2023-04-18T18:58:20.672Z,20.20
2023-04-18T19:00:48.166Z,19.98
2023-04-18T19:03:18.278Z,20.63
2023-04-18T19:05:45.925Z,19.30
2023-04-18T19:08:13.474Z,20.70
2023-04-18T19:10:43.116Z,21.27
2023-04-18T19:13:10.647Z,21.20
2023-04-18T19:15:38.120Z,20.88
2023-04-18T19:18:05.684Z,20.15
2023-04-18T19:20:35.204Z,19.95
2023-04-18T19:23:02.650Z,19.88
2023-04-18T19:25:30.637Z,20.73
2023-04-18T19:27:59.333Z,21.40
2023-04-18T19:30:26.694Z,21.27
2023-04-18T19:32:54.121Z,19.90
2023-04-18T19:35:21.594Z,19.65
2023-04-18T19:37:48.987Z,19.27
2023-04-18T19:40:16.491Z,21.80
2023-04-18T19:42:44.233Z,20.40
2023-04-18T19:45:16.222Z,19.90
2023-04-18T19:47:44.977Z,20.65
2023-04-18T19:50:12.437Z,19.33
2023-04-18T19:52:40.185Z,20.60
2023-04-18T19:55:08.575Z,19.65
2023-04-18T19:57:38.915Z,19.80
2023-04-18T20:00:08.322Z,20.33
2023-04-18T20:02:37.166Z,20.23
2023-04-18T20:05:05.603Z,19.05
2023-04-18T20:07:33.182Z,20.75
2023-04-18T20:10:00.658Z,20.02
2023-04-18T20:12:28.397Z,20.30
2023-04-18T20:14:56.138Z,20.50
2023-04-18T20:17:23.589Z,20.08
2023-04-18T20:19:52.331Z,20.35
2023-04-18T20:22:20.193Z,21.20
2023-04-18T20:24:48.710Z,20.10
2023-04-18T20:27:20.255Z,20.67
2023-04-18T20:29:47.677Z,19.73
2023-04-18T20:32:16.018Z,19.50
2023-04-18T20:34:43.419Z,19.98
2023-04-18T20:37:15.381Z,19.77
2023-04-18T20:39:42.790Z,20.02
2023-04-18T20:42:14.152Z,19.60
2023-04-18T20:44:43.119Z,20.13
2023-04-18T20:47:10.636Z,20.45
2023-04-18T20:49:38.104Z,20.45
2023-04-18T20:52:09.401Z,19.73
2023-04-18T20:54:38.090Z,21.45
2023-04-18T20:57:05.455Z,20.42
2023-04-18T20:59:32.824Z,19.63
2023-04-18T21:02:00.371Z,18.88
2023-04-18T21:04:28.090Z,19.73
2023-04-18T21:06:55.590Z,19.75
2023-04-18T21:09:22.993Z,20.45
2023-04-18T21:11:51.666Z,21.08
2023-04-18T21:14:19.917Z,20.25
2023-04-18T21:16:47.288Z,21.67
2023-04-18T21:19:14.774Z,20.10
2023-04-18T21:21:42.158Z,20.48
2023-04-18T21:24:10.775Z,20.13
2023-04-18T21:26:38.184Z,20.83
2023-04-18T21:29:06.929Z,19.33
2023-04-18T21:31:35.488Z,19.58
2023-04-18T21:34:04.622Z,20.13
2023-04-18T21:36:32.662Z,20.38
2023-04-18T21:39:01.635Z,21.55
2023-04-18T21:41:29.127Z,19.35
2023-04-18T21:43:56.850Z,20.25
2023-04-18T21:46:25.766Z,20.95
2023-04-18T21:48:53.160Z,20.85
2023-04-18T21:51:20.599Z,20.50
2023-04-18T21:53:48.035Z,20.60
2023-04-18T21:56:16.659Z,20.25
2023-04-18T21:58:44.160Z,19.88
2023-04-18T22:01:11.641Z,20.98
2023-04-18T22:03:40.859Z,20.85
2023-04-18T22:06:08.394Z,20.10
2023-04-18T22:08:36.046Z,21.75
2023-04-18T22:11:04.790Z,21.27
2023-04-18T22:13:33.142Z,22.27
2023-04-18T22:16:02.018Z,21.38
2023-04-18T22:18:33.227Z,21.25
2023-04-18T22:21:02.352Z,21.15
2023-04-18T22:23:30.542Z,21.70
2023-04-18T22:25:57.968Z,22.00
2023-04-18T22:28:26.186Z,21.88
2023-04-18T22:30:53.576Z,22.58
2023-04-18T22:33:20.985Z,21.40
2023-04-18T22:35:48.886Z,22.92
2023-04-18T22:38:17.967Z,21.90
2023-04-18T22:40:45.529Z,20.75
2023-04-18T22:43:12.908Z,21.27
2023-04-18T22:45:40.304Z,21.63
2023-04-18T22:48:11.314Z,22.25
2023-04-18T22:50:42.473Z,22.25
2023-04-18T22:53:10.242Z,20.83
2023-04-18T22:55:40.775Z,22.20
2023-04-18T22:58:08.622Z,21.33
2023-04-18T23:00:36.139Z,21.00
2023-04-18T23:03:03.842Z,20.90
2023-04-18T23:05:31.727Z,20.85
2023-04-18T23:08:00.231Z,20.98
2023-04-18T23:10:28.097Z,20.50
2023-04-18T23:12:56.956Z,20.17
2023-04-18T23:15:24.492Z,19.40
2023-04-18T23:17:53.176Z,20.55
2023-04-18T23:20:20.985Z,20.10
2023-04-18T23:22:49.984Z,19.30
2023-04-18T23:25:17.493Z,19.27
2023-04-18T23:27:44.867Z,20.30
2023-04-18T23:30:14.083Z,18.80
2023-04-18T23:32:41.640Z,19.67
2023-04-18T23:35:09.947Z,21.02
2023-04-18T23:37:37.370Z,20.00
2023-04-18T23:40:06.691Z,18.55
2023-04-18T23:42:35.065Z,19.77
2023-04-18T23:45:03.563Z,18.73
2023-04-18T23:47:32.418Z,17.75
2023-04-18T23:49:59.818Z,17.95
2023-04-18T23:52:27.204Z,16.92
2023-04-18T23:54:54.602Z,17.55
2023-04-18T23:57:22.109Z,17.58
2023-04-18T23:59:49.505Z,17.05
